Time;durP1;ratioP1;P1;durP2;ratioP2;P2;SDS_P1;SDS_P2;PMS_P1;PMS_P2;Temp;Humidity;BMP_temperature;BMP_pressure;BME280_temperature;BME280_humidity;BME280_pressure;Samples;Min_cycle;Max_cycle;Signal;HPM_P1;HPM_P2
2021/01/20 00:00:26;;;;;;;16.15;9.05;;;20.00;81.70;;;;;;5037081;28;20022;-56
2021/01/20 00:02:51;;;;;;;14.48;8.80;;;20.00;81.90;;;;;;5038731;28;20029;-56
2021/01/20 00:05:17;;;;;;;15.48;8.85;;;20.00;81.90;;;;;;5055525;28;20100;-56
2021/01/20 00:07:42;;;;;;;14.80;8.30;;;20.00;81.80;;;;;;5039727;28;20091;-56
2021/01/20 00:10:08;;;;;;;15.15;8.30;;;20.00;81.80;;;;;;5036495;28;20120;-56
2021/01/20 00:12:34;;;;;;;16.08;8.63;;;20.00;81.50;;;;;;5042344;28;20487;-56
2021/01/20 00:14:59;;;;;;;12.77;8.18;;;20.00;81.60;;;;;;5056656;28;20089;-56
2021/01/20 00:17:25;;;;;;;17.13;9.38;;;20.00;81.40;;;;;;5056149;28;20032;-56
2021/01/20 00:19:50;;;;;;;14.63;8.00;;;20.00;81.60;;;;;;5043847;28;20026;-56
2021/01/20 00:22:16;;;;;;;14.52;8.30;;;20.00;81.60;;;;;;5035000;28;20025;-56
2021/01/20 00:24:42;;;;;;;13.00;8.25;;;19.90;81.30;;;;;;5056059;28;20036;-56
2021/01/20 00:27:08;;;;;;;13.43;8.55;;;19.90;81.20;;;;;;5056018;28;20066;-56
2021/01/20 00:29:34;;;;;;;15.07;8.52;;;19.90;81.40;;;;;;5053289;28;20028;-56
2021/01/20 00:32:01;;;;;;;12.88;7.45;;;19.90;81.20;;;;;;5054887;28;20524;-56
2021/01/20 00:34:27;;;;;;;13.73;7.97;;;19.90;81.30;;;;;;5040485;28;20051;-56
2021/01/20 00:36:53;;;;;;;12.75;8.15;;;19.90;81.20;;;;;;5036562;28;20167;-56
2021/01/20 00:39:19;;;;;;;14.75;7.90;;;19.90;81.10;;;;;;5036395;28;20131;-56
2021/01/20 00:41:45;;;;;;;13.98;8.32;;;19.90;80.90;;;;;;5036127;28;20418;-56
2021/01/20 00:44:11;;;;;;;13.20;7.78;;;19.90;80.90;;;;;;5046079;28;20051;-58
2021/01/20 00:46:37;;;;;;;11.50;8.02;;;19.90;81.10;;;;;;5056185;28;20033;-57
2021/01/20 00:49:03;;;;;;;14.23;7.45;;;19.90;81.00;;;;;;5054465;28;20032;-57
2021/01/20 00:51:29;;;;;;;13.60;7.55;;;19.90;81.00;;;;;;5054267;28;20029;-57
2021/01/20 00:53:54;;;;;;;11.50;7.50;;;19.90;80.80;;;;;;5050155;28;20024;-57
2021/01/20 00:56:20;;;;;;;12.25;7.57;;;19.90;80.80;;;;;;5034518;28;20482;-57
2021/01/20 00:58:45;;;;;;;14.27;7.32;;;19.90;80.80;;;;;;5036938;28;20080;-57
2021/01/20 01:01:11;;;;;;;12.18;7.55;;;19.90;80.60;;;;;;5039034;28;20032;-58
2021/01/20 01:03:36;;;;;;;11.52;7.90;;;19.90;80.60;;;;;;5053959;28;20136;-58
2021/01/20 01:06:02;;;;;;;14.68;7.40;;;19.90;80.60;;;;;;5035879;28;20459;-58
2021/01/20 01:08:28;;;;;;;11.98;7.25;;;19.90;80.50;;;;;;5035622;28;20071;-58
2021/01/20 01:10:53;;;;;;;12.20;7.38;;;19.90;80.40;;;;;;5034574;28;20026;-57
2021/01/20 01:13:20;;;;;;;12.68;7.38;;;19.90;80.20;;;;;;5047726;28;20083;-57
2021/01/20 01:15:46;;;;;;;11.27;6.90;;;19.90;80.10;;;;;;5040495;28;20404;-57
2021/01/20 01:18:11;;;;;;;12.15;7.78;;;19.90;80.30;;;;;;5035673;28;20133;-57
2021/01/20 01:20:37;;;;;;;11.65;7.22;;;19.90;80.00;;;;;;5034025;28;20037;-57
2021/01/20 01:23:03;;;;;;;10.57;6.95;;;19.90;80.00;;;;;;5035145;28;20506;-58
2021/01/20 01:25:28;;;;;;;11.60;7.28;;;19.90;80.20;;;;;;5044684;28;20024;-57
2021/01/20 01:27:54;;;;;;;10.50;6.72;;;19.90;80.00;;;;;;5055402;28;20166;-57
2021/01/20 01:30:20;;;;;;;11.00;7.40;;;19.90;80.00;;;;;;5041938;28;20459;-57
2021/01/20 01:32:46;;;;;;;10.30;6.88;;;19.90;80.00;;;;;;5035675;28;20072;-58
2021/01/20 01:35:12;;;;;;;14.38;8.00;;;19.90;80.00;;;;;;5037908;28;20021;-57
2021/01/20 01:37:37;;;;;;;10.68;6.90;;;19.90;80.00;;;;;;5053374;28;20063;-58
2021/01/20 01:40:05;;;;;;;10.68;7.05;;;19.90;80.00;;;;;;5055259;28;20029;-58
2021/01/20 01:42:30;;;;;;;10.18;7.00;;;19.90;79.80;;;;;;5054698;28;20029;-58
2021/01/20 01:44:56;;;;;;;14.05;7.55;;;19.90;79.90;;;;;;5053256;28;20025;-58
2021/01/20 01:47:23;;;;;;;10.63;7.40;;;19.90;80.40;;;;;;5033652;28;20017;-58
2021/01/20 01:49:49;;;;;;;10.30;6.18;;;19.90;79.60;;;;;;5034899;28;20029;-58
2021/01/20 01:52:15;;;;;;;8.23;6.00;;;19.80;79.80;;;;;;5034867;28;20076;-58
2021/01/20 01:54:41;;;;;;;12.55;6.75;;;19.90;79.50;;;;;;5034910;28;20025;-58
2021/01/20 01:57:07;;;;;;;10.30;6.03;;;19.90;79.60;;;;;;5049025;28;20095;-58
2021/01/20 01:59:33;;;;;;;10.52;6.85;;;19.90;79.50;;;;;;5054260;28;20033;-58
2021/01/20 02:01:58;;;;;;;9.77;6.15;;;19.90;79.60;;;;;;5054483;28;20033;-58
2021/01/20 02:04:24;;;;;;;10.32;6.15;;;19.90;79.50;;;;;;5054462;28;20041;-58
2021/01/20 02:06:52;;;;;;;10.63;6.93;;;19.90;79.60;;;;;;5045155;28;20117;-58
2021/01/20 02:09:18;;;;;;;10.15;6.45;;;19.90;79.60;;;;;;5034532;28;20033;-57
2021/01/20 02:12:25;;;;;;;10.57;6.22;;;19.90;79.60;;;;;;5034410;28;20029;-57
2021/01/20 02:15:02;;;;;;;11.55;6.63;;;19.90;79.40;;;;;;5033184;28;20524;-58
2021/01/20 02:17:58;;;;;;;9.90;6.68;;;19.90;79.40;;;;;;5045779;28;20531;-57
2021/01/20 02:20:30;;;;;;;7.68;5.70;;;19.90;79.40;;;;;;5035488;28;20041;-57
2021/01/20 02:23:02;;;;;;;9.73;6.38;;;19.90;79.40;;;;;;5049068;28;20048;-57
2021/01/20 02:25:55;;;;;;;10.50;5.88;;;19.90;79.30;;;;;;5053891;28;20033;-57
2021/01/20 02:28:26;;;;;;;10.20;6.38;;;19.90;79.30;;;;;;5037844;28;20044;-57
2021/01/20 02:30:52;;;;;;;9.50;6.22;;;19.90;79.20;;;;;;5034116;28;20036;-58
2021/01/20 02:33:22;;;;;;;12.65;6.72;;;19.90;79.30;;;;;;5034167;28;20030;-57
2021/01/20 02:35:55;;;;;;;8.52;6.20;;;19.90;79.30;;;;;;5034265;28;20028;-57
2021/01/20 02:38:22;;;;;;;9.63;6.15;;;19.90;79.30;;;;;;5046661;28;20041;-58
2021/01/20 02:40:48;;;;;;;8.50;6.18;;;19.90;79.20;;;;;;5052406;28;20059;-58
2021/01/20 02:43:20;;;;;;;9.77;6.60;;;19.90;79.40;;;;;;5053939;28;20041;-58
2021/01/20 02:45:45;;;;;;;10.30;6.40;;;19.90;79.30;;;;;;5054023;28;20025;-58
2021/01/20 02:48:11;;;;;;;9.00;5.63;;;19.90;79.10;;;;;;5045189;28;20041;-57
2021/01/20 02:50:37;;;;;;;9.77;5.80;;;19.90;79.10;;;;;;5033700;28;20489;-58
2021/01/20 02:53:09;;;;;;;9.15;5.78;;;19.90;79.10;;;;;;5032480;28;20454;-58
2021/01/20 02:55:35;;;;;;;9.57;6.05;;;19.90;79.00;;;;;;5032403;28;20046;-58
2021/01/20 02:58:05;;;;;;;8.85;5.93;;;19.90;79.10;;;;;;5038143;28;20032;-58
2021/01/20 03:00:32;;;;;;;9.15;6.50;;;19.90;79.10;;;;;;5053445;28;20028;-57
2021/01/20 03:03:03;;;;;;;8.68;5.65;;;19.90;79.10;;;;;;5053458;28;20044;-57
2021/01/20 03:05:29;;;;;;;10.57;5.78;;;19.90;79.10;;;;;;5051442;28;20508;-57
2021/01/20 03:07:56;;;;;;;11.30;6.30;;;19.90;79.00;;;;;;5052450;28;20029;-58
2021/01/20 03:10:23;;;;;;;9.02;5.85;;;19.90;79.00;;;;;;5033579;28;20017;-58
2021/01/20 03:12:49;;;;;;;9.00;6.15;;;19.90;79.10;;;;;;5051417;28;20044;-58
2021/01/20 03:15:40;;;;;;;7.63;5.32;;;19.90;79.10;;;;;;5053098;28;20040;-58
2021/01/20 03:18:06;;;;;;;8.68;5.90;;;19.90;79.10;;;;;;5012509;28;20439;-58
2021/01/20 03:20:32;;;;;;;9.45;6.20;;;19.90;79.50;;;;;;5031614;28;20390;-57
2021/01/20 03:22:58;;;;;;;9.43;5.68;;;19.90;78.90;;;;;;5050696;28;20037;-58
2021/01/20 03:25:24;;;;;;;8.55;5.82;;;19.90;79.10;;;;;;5053456;28;20447;-58
2021/01/20 03:27:51;;;;;;;7.55;5.20;;;19.90;78.90;;;;;;5053827;28;20029;-58
2021/01/20 03:30:17;;;;;;;8.05;5.35;;;19.80;78.80;;;;;;5053450;28;20074;-58
2021/01/20 03:32:43;;;;;;;8.18;5.68;;;19.80;79.60;;;;;;5038841;28;20479;-57
2021/01/20 03:35:09;;;;;;;9.35;6.22;;;19.80;79.00;;;;;;5037180;28;20112;-58
2021/01/20 03:37:35;;;;;;;7.97;5.63;;;19.80;78.90;;;;;;5037057;28;20059;-57
2021/01/20 03:40:00;;;;;;;7.50;5.35;;;19.90;79.00;;;;;;5037548;28;20449;-57
2021/01/20 03:42:26;;;;;;;8.93;5.70;;;19.80;79.00;;;;;;5044911;28;20021;-57
2021/01/20 03:44:52;;;;;;;9.20;5.78;;;19.80;79.00;;;;;;5056063;28;20025;-57
2021/01/20 03:47:17;;;;;;;7.97;6.40;;;19.90;79.10;;;;;;5057272;28;20029;-57
2021/01/20 03:49:43;;;;;;;7.85;5.32;;;19.80;78.80;;;;;;5056982;28;20108;-57
2021/01/20 03:52:09;;;;;;;10.40;6.45;;;19.80;79.00;;;;;;5056998;28;20044;-57
2021/01/20 03:54:35;;;;;;;7.70;5.68;;;19.80;79.00;;;;;;5057033;28;20025;-57
2021/01/20 03:57:02;;;;;;;8.10;5.78;;;19.80;78.80;;;;;;5055112;28;20550;-57
2021/01/20 03:59:27;;;;;;;7.45;5.10;;;19.80;78.60;;;;;;5057199;28;20029;-57
2021/01/20 04:01:53;;;;;;;7.32;5.38;;;19.80;78.60;;;;;;5057090;28;20108;-57
2021/01/20 04:04:18;;;;;;;7.65;5.70;;;19.90;78.50;;;;;;5039318;28;20127;-57
2021/01/20 04:06:45;;;;;;;8.27;5.38;;;19.80;78.40;;;;;;5036958;28;20037;-57
2021/01/20 04:09:11;;;;;;;7.90;5.45;;;19.80;78.60;;;;;;5036764;28;20028;-57
2021/01/20 04:11:37;;;;;;;7.00;5.13;;;19.80;78.40;;;;;;5052453;28;20021;-57
2021/01/20 04:14:02;;;;;;;7.65;5.18;;;19.80;79.00;;;;;;5044161;28;20033;-57
2021/01/20 04:16:28;;;;;;;8.30;5.57;;;19.90;78.50;;;;;;5036916;28;20087;-57
2021/01/20 04:18:54;;;;;;;6.90;5.32;;;19.90;78.40;;;;;;5036478;28;20018;-57
2021/01/20 04:21:19;;;;;;;7.55;4.90;;;19.90;78.50;;;;;;5036852;28;20099;-57
2021/01/20 04:23:45;;;;;;;6.85;4.80;;;19.80;78.40;;;;;;5041763;28;20041;-57
2021/01/20 04:26:10;;;;;;;6.75;5.15;;;19.80;78.40;;;;;;5056313;28;20025;-57
2021/01/20 04:28:36;;;;;;;7.97;5.50;;;19.90;78.40;;;;;;5056358;28;20466;-57
2021/01/20 04:31:03;;;;;;;7.97;4.55;;;19.80;78.20;;;;;;5056279;28;20029;-57
2021/01/20 04:33:30;;;;;;;6.90;4.85;;;19.80;78.10;;;;;;5038274;28;20033;-57
2021/01/20 04:35:56;;;;;;;7.10;5.00;;;19.80;78.20;;;;;;5055333;28;20374;-57
2021/01/20 04:38:22;;;;;;;7.68;5.50;;;19.80;78.30;;;;;;5051747;28;20052;-57
2021/01/20 04:40:58;;;;;;;7.10;5.13;;;19.80;78.20;;;;;;5036146;28;20546;-57
2021/01/20 04:43:24;;;;;;;6.72;4.63;;;19.80;78.40;;;;;;5036295;28;20144;-57
2021/01/20 04:45:54;;;;;;;6.60;4.78;;;19.80;78.30;;;;;;5052527;28;20033;-57
2021/01/20 04:48:20;;;;;;;5.57;4.53;;;19.80;78.20;;;;;;5055800;28;20466;-57
2021/01/20 04:50:49;;;;;;;5.57;4.60;;;19.80;78.30;;;;;;5054520;28;20425;-57
2021/01/20 04:53:15;;;;;;;6.72;4.53;;;19.80;78.30;;;;;;5054258;28;20033;-57
2021/01/20 04:55:43;;;;;;;6.88;4.97;;;19.80;78.40;;;;;;5039874;28;21172;-57
2021/01/20 04:58:12;;;;;;;5.85;4.68;;;19.80;78.20;;;;;;5035645;28;20072;-57
2021/01/20 05:00:41;;;;;;;5.80;4.47;;;19.80;78.20;;;;;;5036252;28;20032;-57
2021/01/20 05:03:08;;;;;;;6.35;4.60;;;19.80;78.00;;;;;;5035690;28;20029;-57
2021/01/20 05:05:35;;;;;;;7.85;4.93;;;19.80;78.10;;;;;;5045842;28;20021;-57
2021/01/20 05:08:01;;;;;;;6.68;5.10;;;19.80;78.30;;;;;;5055742;28;20091;-57
2021/01/20 05:10:27;;;;;;;6.60;4.78;;;19.80;78.30;;;;;;5055674;28;20073;-58
2021/01/20 05:12:53;;;;;;;8.20;5.63;;;19.80;78.20;;;;;;5055544;28;20111;-57
2021/01/20 05:15:32;;;;;;;7.00;4.72;;;19.80;78.10;;;;;;5039907;28;20025;-58
2021/01/20 05:18:03;;;;;;;6.88;5.05;;;19.80;78.20;;;;;;5055510;28;20072;-58
2021/01/20 05:20:37;;;;;;;5.63;4.00;;;19.90;78.20;;;;;;5037704;28;20025;-57
2021/01/20 05:23:05;;;;;;;6.75;4.88;;;19.90;78.10;;;;;;5035583;28;20048;-58
2021/01/20 05:25:35;;;;;;;6.80;4.70;;;19.80;78.00;;;;;;5048040;28;20482;-57
2021/01/20 05:28:16;;;;;;;6.28;4.53;;;19.80;77.90;;;;;;5035358;28;20044;-57
2021/01/20 05:30:59;;;;;;;5.50;4.32;;;19.90;78.00;;;;;;5035236;28;20026;-57
2021/01/20 05:33:25;;;;;;;6.30;4.55;;;19.90;77.80;;;;;;5035318;28;20385;-57
2021/01/20 05:36:06;;;;;;;7.28;4.38;;;19.90;78.10;;;;;;5051782;28;20029;-57
2021/01/20 05:38:32;;;;;;;5.78;4.32;;;19.90;77.60;;;;;;5055081;28;20051;-57
2021/01/20 05:41:06;;;;;;;6.03;4.57;;;19.90;77.70;;;;;;5053411;28;20358;-56
2021/01/20 05:43:31;;;;;;;5.95;4.68;;;19.90;77.60;;;;;;5035545;28;20048;-58
2021/01/20 05:45:57;;;;;;;6.55;4.70;;;19.90;77.50;;;;;;5049714;28;20037;-57
2021/01/20 05:48:23;;;;;;;6.35;4.57;;;19.90;77.50;;;;;;5054854;28;20036;-58
2021/01/20 05:50:58;;;;;;;5.32;4.15;;;19.90;77.50;;;;;;5054392;28;20028;-57
2021/01/20 05:53:23;;;;;;;5.05;3.85;;;19.90;77.80;;;;;;5053535;28;20025;-57
2021/01/20 05:56:05;;;;;;;7.70;5.10;;;19.90;77.90;;;;;;5041305;28;20056;-57
2021/01/20 05:58:40;;;;;;;6.93;4.10;;;20.00;78.60;;;;;;5054867;28;20033;-57
2021/01/20 06:01:09;;;;;;;5.50;4.20;;;20.00;78.10;;;;;;5052440;28;20032;-57
2021/01/20 06:03:36;;;;;;;6.03;4.60;;;20.00;78.20;;;;;;5054595;28;20048;-57
2021/01/20 06:06:03;;;;;;;9.32;5.03;;;20.00;78.10;;;;;;5054096;28;20512;-57
2021/01/20 06:08:33;;;;;;;5.90;4.50;;;20.00;78.10;;;;;;5052765;28;20083;-58
2021/01/20 06:10:59;;;;;;;9.35;5.15;;;20.00;77.90;;;;;;5040357;28;20040;-57
2021/01/20 06:13:25;;;;;;;11.23;5.43;;;20.00;78.00;;;;;;5054189;28;20108;-58
2021/01/20 06:15:55;;;;;;;8.88;5.22;;;20.00;77.90;;;;;;5053938;28;20040;-58
2021/01/20 06:18:24;;;;;;;7.25;4.95;;;20.00;78.00;;;;;;5052982;28;20029;-57
2021/01/20 06:20:52;;;;;;;8.38;4.90;;;20.00;77.80;;;;;;5014582;28;20033;-57
2021/01/20 06:23:22;;;;;;;8.45;4.60;;;20.00;78.00;;;;;;5047901;28;20049;-57
2021/01/20 06:25:51;;;;;;;8.95;5.32;;;20.00;77.90;;;;;;5053112;28;20378;-58
2021/01/20 06:28:17;;;;;;;10.68;5.55;;;20.00;77.70;;;;;;5054057;28;20059;-57
2021/01/20 06:30:48;;;;;;;13.05;5.25;;;20.10;77.80;;;;;;5053713;28;20024;-57
2021/01/20 06:33:16;;;;;;;13.13;5.85;;;20.00;77.90;;;;;;5038007;28;20355;-57
2021/01/20 06:35:46;;;;;;;8.85;5.65;;;20.00;77.90;;;;;;5034153;28;20144;-58
2021/01/20 06:38:27;;;;;;;9.38;5.63;;;20.00;77.80;;;;;;5039452;28;20029;-57
2021/01/20 06:40:53;;;;;;;8.88;4.90;;;20.00;77.80;;;;;;5053461;28;20483;-57
2021/01/20 06:43:44;;;;;;;8.32;5.05;;;20.00;77.90;;;;;;5041318;28;20056;-57
2021/01/20 06:46:19;;;;;;;9.48;4.85;;;20.00;77.70;;;;;;5034004;28;20052;-57
2021/01/20 06:48:53;;;;;;;10.07;5.68;;;20.00;77.80;;;;;;5033793;28;20440;-57
2021/01/20 06:51:20;;;;;;;8.07;5.18;;;20.00;77.80;;;;;;5033595;28;20029;-57
2021/01/20 06:54:08;;;;;;;8.50;5.30;;;20.00;77.70;;;;;;5046160;28;20452;-57
2021/01/20 06:56:49;;;;;;;8.65;5.43;;;20.00;77.70;;;;;;5054330;28;20051;-57
2021/01/20 06:59:30;;;;;;;8.52;5.25;;;20.00;77.80;;;;;;5050248;28;20029;-57
2021/01/20 07:02:02;;;;;;;8.27;4.57;;;20.00;77.80;;;;;;5051748;28;20545;-57
2021/01/20 07:04:50;;;;;;;11.00;5.13;;;20.00;77.80;;;;;;5036230;28;20076;-59
2021/01/20 07:07:56;;;;;;;9.70;5.10;;;20.00;77.60;;;;;;5041615;28;20033;-58
2021/01/20 07:10:23;;;;;;;8.73;4.68;;;20.00;77.60;;;;;;5052026;28;20110;-59
2021/01/20 07:13:10;;;;;;;8.27;4.75;;;20.00;77.70;;;;;;5051558;28;20482;-57
2021/01/20 07:15:37;;;;;;;8.15;4.93;;;20.00;77.60;;;;;;5013884;28;20026;-57
2021/01/20 07:18:05;;;;;;;9.50;5.55;;;20.00;77.70;;;;;;5012119;28;20036;-57
2021/01/20 07:20:31;;;;;;;8.80;5.20;;;20.00;77.70;;;;;;5031527;28;20109;-57
2021/01/20 07:22:57;;;;;;;8.23;5.05;;;20.00;77.60;;;;;;5033363;28;20033;-58
2021/01/20 07:25:25;;;;;;;10.40;5.18;;;20.00;78.00;;;;;;5048842;28;20029;-57
2021/01/20 07:27:53;;;;;;;8.25;5.60;;;20.00;77.70;;;;;;5053310;28;20025;-57
2021/01/20 07:30:19;;;;;;;13.50;4.82;;;20.00;77.80;;;;;;5051615;28;20252;-57
2021/01/20 07:32:47;;;;;;;9.10;4.95;;;20.00;77.70;;;;;;5051140;28;20544;-58
2021/01/20 07:35:24;;;;;;;9.45;5.28;;;20.00;77.60;;;;;;5038315;28;20033;-58
2021/01/20 07:38:03;;;;;;;9.75;4.93;;;20.00;77.70;;;;;;5033523;28;20028;-59
2021/01/20 07:40:30;;;;;;;23.40;7.90;;;20.00;83.90;;;;;;5031578;28;20386;-54
2021/01/20 07:42:56;;;;;;;13.70;5.93;;;20.10;80.20;;;;;;5033068;28;20060;-55
2021/01/20 07:45:39;;;;;;;30.10;8.85;;;20.10;79.90;;;;;;5031822;28;20060;-55
2021/01/20 07:48:07;;;;;;;40.92;9.30;;;20.10;79.60;;;;;;5032965;28;20479;-55
2021/01/20 07:50:43;;;;;;;41.85;11.90;;;20.00;79.40;;;;;;5030327;28;20036;-55
2021/01/20 07:53:21;;;;;;;40.15;12.25;;;20.00;79.60;;;;;;5033488;28;20390;-55
2021/01/20 07:55:53;;;;;;;39.25;11.02;;;20.00;79.40;;;;;;5031902;28;20045;-54
2021/01/20 07:58:27;;;;;;;51.45;13.65;;;20.00;79.20;;;;;;5031446;28;20071;-55
2021/01/20 08:00:54;;;;;;;44.58;14.32;;;20.00;79.30;;;;;;5032647;28;20029;-54
2021/01/20 08:03:33;;;;;;;48.03;13.95;;;20.00;79.30;;;;;;5031289;28;20045;-54
2021/01/20 08:06:07;;;;;;;50.30;14.25;;;20.00;79.10;;;;;;5032931;28;20038;-55
2021/01/20 08:08:47;;;;;;;58.58;16.50;;;20.00;78.90;;;;;;5032406;28;20129;-55
2021/01/20 08:11:17;;;;;;;43.88;13.25;;;20.00;79.20;;;;;;5033095;28;20056;-54
2021/01/20 08:13:43;;;;;;;42.75;14.82;;;20.00;79.10;;;;;;5032332;28;20034;-55
2021/01/20 08:16:09;;;;;;;45.30;16.15;;;20.00;79.00;;;;;;5032278;28;20496;-55
2021/01/20 08:18:38;;;;;;;51.28;15.30;;;20.00;78.70;;;;;;5031893;28;20113;-56
2021/01/20 08:21:08;;;;;;;47.70;14.98;;;20.00;78.80;;;;;;5036532;28;20549;-55
2021/01/20 08:23:47;;;;;;;49.20;15.07;;;20.00;78.60;;;;;;5036653;28;20033;-55
2021/01/20 08:26:22;;;;;;;38.10;13.93;;;20.00;79.00;;;;;;5036778;28;20351;-56
2021/01/20 08:29:09;;;;;;;40.30;14.15;;;20.00;78.80;;;;;;5036411;28;20133;-56
2021/01/20 08:31:39;;;;;;;41.75;14.20;;;20.00;78.80;;;;;;5036337;28;20374;-56
2021/01/20 08:34:22;;;;;;;38.17;13.23;;;20.00;78.80;;;;;;5034769;28;20026;-55
2021/01/20 08:37:03;;;;;;;44.40;13.75;;;20.00;78.40;;;;;;5036179;28;20029;-55
2021/01/20 08:39:30;;;;;;;45.50;14.73;;;20.00;78.60;;;;;;5036361;28;20036;-56
2021/01/20 08:42:19;;;;;;;45.70;14.35;;;20.00;78.50;;;;;;5035592;28;20467;-55
2021/01/20 08:45:21;;;;;;;47.03;14.15;;;20.00;78.70;;;;;;5036337;28;20073;-55
2021/01/20 08:47:59;;;;;;;47.15;14.40;;;20.00;78.40;;;;;;5034766;28;20029;-56
2021/01/20 08:50:27;;;;;;;45.53;14.38;;;20.00;78.50;;;;;;5036301;28;20112;-55
2021/01/20 08:52:55;;;;;;;35.45;13.43;;;20.00;78.70;;;;;;5035881;28;20544;-54
2021/01/20 08:55:20;;;;;;;40.83;14.15;;;20.00;78.50;;;;;;5035768;28;20145;-55
2021/01/20 08:57:46;;;;;;;46.05;14.95;;;20.00;78.50;;;;;;5036046;28;20087;-55
2021/01/20 09:00:15;;;;;;;36.33;13.30;;;20.00;78.70;;;;;;5035523;28;20029;-55
2021/01/20 09:02:41;;;;;;;48.17;14.48;;;20.00;78.30;;;;;;5035552;28;20022;-54
2021/01/20 09:05:10;;;;;;;43.95;13.98;;;20.00;78.30;;;;;;5035760;28;20086;-55
2021/01/20 09:07:41;;;;;;;29.75;12.18;;;20.00;78.70;;;;;;5034185;28;20025;-55
2021/01/20 09:10:07;;;;;;;31.58;11.88;;;20.00;80.50;;;;;;5033035;28;20120;-54
2021/01/20 09:12:35;;;;;;;33.72;11.30;;;20.00;81.00;;;;;;5035910;28;20374;-54
2021/01/20 09:15:04;;;;;;;36.03;12.68;;;20.00;81.10;;;;;;5034083;28;20025;-55
2021/01/20 09:17:29;;;;;;;33.10;11.32;;;20.00;80.90;;;;;;5035132;28;20072;-54
2021/01/20 09:19:55;;;;;;;32.53;11.80;;;20.10;80.60;;;;;;5035629;28;20026;-54
2021/01/20 09:22:20;;;;;;;29.98;11.18;;;20.00;81.60;;;;;;5035424;28;20026;-54
2021/01/20 09:24:46;;;;;;;26.23;9.40;;;20.00;78.10;;;;;;5035384;28;20084;-54
2021/01/20 09:27:11;;;;;;;19.30;7.50;;;19.90;68.40;;;;;;5035184;28;20032;-54
2021/01/20 09:29:37;;;;;;;18.92;7.68;;;19.90;72.40;;;;;;5035045;28;20064;-54
2021/01/20 09:32:03;;;;;;;19.45;7.47;;;20.00;72.70;;;;;;5033277;28;20060;-54
2021/01/20 09:34:28;;;;;;;18.95;7.40;;;20.00;73.80;;;;;;5033567;28;20041;-54
2021/01/20 09:36:55;;;;;;;18.35;6.93;;;20.00;74.20;;;;;;5035293;28;20025;-54
2021/01/20 09:39:21;;;;;;;18.33;6.60;;;19.90;74.40;;;;;;5034984;28;20425;-54
2021/01/20 09:41:46;;;;;;;18.85;6.70;;;19.90;72.30;;;;;;5035182;28;20104;-54
2021/01/20 09:44:12;;;;;;;13.57;5.88;;;19.90;70.80;;;;;;5035216;28;20041;-54
2021/01/20 09:46:38;;;;;;;13.90;6.38;;;19.90;71.20;;;;;;5034038;28;20120;-54
2021/01/20 09:49:03;;;;;;;13.85;6.20;;;20.00;73.40;;;;;;5035166;28;20459;-54
2021/01/20 09:51:29;;;;;;;20.70;7.50;;;20.00;75.30;;;;;;5034773;28;20060;-54
2021/01/20 09:53:55;;;;;;;19.00;7.60;;;20.00;75.80;;;;;;5035224;28;20033;-54
2021/01/20 09:56:21;;;;;;;15.55;6.28;;;20.00;76.10;;;;;;5035349;28;20544;-54
2021/01/20 09:58:47;;;;;;;12.95;6.13;;;20.00;76.60;;;;;;5034473;28;20025;-54
2021/01/20 10:01:14;;;;;;;12.65;5.50;;;20.00;70.30;;;;;;5031407;28;20052;-54
2021/01/20 10:03:39;;;;;;;13.25;4.93;;;19.80;67.70;;;;;;5034558;28;20043;-54
2021/01/20 10:06:05;;;;;;;9.73;4.53;;;19.80;60.80;;;;;;5033350;28;20112;-55
2021/01/20 10:08:32;;;;;;;8.70;3.95;;;19.80;58.30;;;;;;5033353;28;20033;-55
2021/01/20 10:10:57;;;;;;;9.13;4.28;;;19.70;56.90;;;;;;5032802;28;20475;-54
2021/01/20 10:13:26;;;;;;;5.43;3.30;;;19.70;57.70;;;;;;5034282;28;20029;-56
2021/01/20 10:15:55;;;;;;;7.53;3.30;;;19.60;54.70;;;;;;5034355;28;20037;-55
2021/01/20 10:18:21;;;;;;;4.43;2.60;;;19.20;51.40;;;;;;5032786;28;20064;-55
2021/01/20 10:20:51;;;;;;;7.35;3.22;;;19.10;52.70;;;;;;5033873;28;20037;-56
2021/01/20 10:23:17;;;;;;;9.25;3.00;;;19.40;60.10;;;;;;5033955;28;20030;-55
2021/01/20 10:25:46;;;;;;;5.40;3.03;;;19.50;58.50;;;;;;5032252;28;20104;-55
2021/01/20 10:28:12;;;;;;;5.03;3.10;;;19.60;61.40;;;;;;5032651;28;20041;-55
2021/01/20 10:30:38;;;;;;;4.38;3.22;;;19.70;62.20;;;;;;5033827;28;20375;-54
2021/01/20 10:33:04;;;;;;;7.47;3.03;;;19.70;62.50;;;;;;5032735;28;20493;-54
2021/01/20 10:35:29;;;;;;;14.90;4.53;;;19.80;64.10;;;;;;5034138;28;20095;-54
2021/01/20 10:37:57;;;;;;;12.13;3.33;;;19.80;65.40;;;;;;5033725;28;20030;-54
2021/01/20 10:40:23;;;;;;;17.00;4.88;;;19.90;65.90;;;;;;5034059;28;20028;-54
2021/01/20 10:42:49;;;;;;;12.77;4.47;;;19.90;67.60;;;;;;5033808;28;20037;-54
2021/01/20 10:45:15;;;;;;;14.07;4.90;;;19.90;70.10;;;;;;5033794;28;20395;-54
2021/01/20 10:47:40;;;;;;;23.35;5.15;;;19.90;71.10;;;;;;5033999;28;20057;-54
2021/01/20 10:50:06;;;;;;;13.75;3.80;;;19.90;70.20;;;;;;5033953;28;20163;-54
2021/01/20 10:52:32;;;;;;;14.02;4.20;;;19.90;70.40;;;;;;5031964;28;20025;-54
2021/01/20 10:54:58;;;;;;;14.93;4.68;;;20.00;70.50;;;;;;5034074;28;20028;-55
2021/01/20 10:57:23;;;;;;;11.00;4.13;;;20.00;70.60;;;;;;5034020;28;20539;-54
2021/01/20 10:59:49;;;;;;;12.77;4.38;;;20.00;71.10;;;;;;5033567;28;20044;-55
2021/01/20 11:02:15;;;;;;;14.85;5.20;;;20.00;70.90;;;;;;5033865;28;20022;-54
2021/01/20 11:04:40;;;;;;;11.25;4.55;;;20.00;71.10;;;;;;5032237;28;20076;-54
2021/01/20 11:07:07;;;;;;;9.77;4.35;;;20.00;71.30;;;;;;5033674;28;20029;-54
2021/01/20 11:09:33;;;;;;;19.75;5.38;;;20.00;71.40;;;;;;5033293;28;20528;-54
2021/01/20 11:11:59;;;;;;;11.32;4.25;;;20.00;71.70;;;;;;5033287;28;20029;-54
2021/01/20 11:14:25;;;;;;;17.75;4.50;;;20.00;71.90;;;;;;5033483;28;20030;-54
2021/01/20 11:16:53;;;;;;;11.13;4.35;;;20.00;71.80;;;;;;5031971;28;20029;-54
2021/01/20 11:19:18;;;;;;;11.07;3.90;;;20.00;72.30;;;;;;5033012;28;20474;-54
2021/01/20 11:21:44;;;;;;;14.10;3.90;;;20.00;72.20;;;;;;5031935;28;20032;-54
2021/01/20 11:24:10;;;;;;;12.07;4.60;;;20.00;72.30;;;;;;5033537;28;20046;-54
2021/01/20 11:26:35;;;;;;;10.27;4.20;;;20.00;72.40;;;;;;5033379;28;20056;-55
2021/01/20 11:29:01;;;;;;;9.38;4.13;;;20.00;72.80;;;;;;5031656;28;20116;-55
2021/01/20 11:31:27;;;;;;;14.25;4.07;;;20.00;72.80;;;;;;5033103;28;20052;-55
2021/01/20 11:33:54;;;;;;;11.10;4.20;;;20.00;72.80;;;;;;5033316;28;20064;-55
2021/01/20 11:36:20;;;;;;;11.48;4.13;;;20.00;73.00;;;;;;5033344;28;20056;-55
2021/01/20 11:38:46;;;;;;;13.35;4.20;;;20.00;73.10;;;;;;5031795;28;20060;-54
2021/01/20 11:41:12;;;;;;;12.95;4.13;;;20.00;73.20;;;;;;5033099;28;20057;-54
2021/01/20 11:43:37;;;;;;;10.50;4.35;;;20.00;73.40;;;;;;5031641;28;20179;-54
2021/01/20 11:46:03;;;;;;;11.75;4.20;;;20.00;73.30;;;;;;5033059;28;20052;-54
2021/01/20 11:48:29;;;;;;;8.68;4.22;;;20.00;73.50;;;;;;5032942;28;20022;-54
2021/01/20 11:50:54;;;;;;;12.00;4.28;;;20.00;73.50;;;;;;5031930;28;20026;-54
2021/01/20 11:53:21;;;;;;;9.15;3.95;;;20.00;73.60;;;;;;5033465;28;20026;-54
2021/01/20 11:55:47;;;;;;;9.95;4.43;;;20.00;73.60;;;;;;5037122;28;20042;-55
2021/01/20 11:58:12;;;;;;;7.75;3.65;;;20.00;73.90;;;;;;5037158;28;20095;-55
2021/01/20 12:00:38;;;;;;;8.30;4.28;;;20.00;73.80;;;;;;5035376;28;21242;-55
2021/01/20 12:03:04;;;;;;;12.65;5.35;;;20.00;74.00;;;;;;5037077;28;20033;-55
2021/01/20 12:05:30;;;;;;;10.25;3.85;;;20.00;73.90;;;;;;5037058;28;20045;-55
2021/01/20 12:07:55;;;;;;;13.05;4.38;;;20.00;74.10;;;;;;5037018;28;20462;-54
2021/01/20 12:10:21;;;;;;;9.07;3.95;;;20.00;74.20;;;;;;5035204;28;20026;-55
2021/01/20 12:12:46;;;;;;;10.00;4.57;;;20.00;74.30;;;;;;5035430;28;20032;-55
2021/01/20 12:15:12;;;;;;;9.75;4.43;;;20.00;74.40;;;;;;5035181;28;20036;-55
2021/01/20 12:17:38;;;;;;;10.95;4.20;;;20.00;74.50;;;;;;5036767;28;20458;-55
2021/01/20 12:20:06;;;;;;;11.93;4.20;;;20.00;74.60;;;;;;5036348;28;20036;-55
2021/01/20 12:22:32;;;;;;;12.07;4.90;;;20.00;74.70;;;;;;5036297;28;20532;-55
2021/01/20 12:24:58;;;;;;;9.00;3.92;;;20.00;74.70;;;;;;5035233;28;20029;-55
2021/01/20 12:27:23;;;;;;;10.02;4.63;;;20.10;74.70;;;;;;5035098;28;20136;-55
2021/01/20 12:29:49;;;;;;;10.10;4.35;;;20.10;74.80;;;;;;5036392;28;20040;-55
2021/01/20 12:32:14;;;;;;;10.85;4.40;;;20.10;74.90;;;;;;5036599;28;20057;-55
2021/01/20 12:34:40;;;;;;;9.82;3.97;;;20.10;75.00;;;;;;5033402;28;20040;-55
2021/01/20 12:37:06;;;;;;;11.13;3.67;;;20.10;75.00;;;;;;5036068;28;20037;-55
2021/01/20 12:39:32;;;;;;;9.85;3.60;;;20.10;75.00;;;;;;5036316;28;20061;-55
2021/01/20 12:41:57;;;;;;;12.07;4.60;;;20.10;75.00;;;;;;5036266;28;20026;-55
2021/01/20 12:44:23;;;;;;;7.95;3.88;;;20.10;75.30;;;;;;5035990;28;20086;-55
2021/01/20 12:46:48;;;;;;;8.13;4.00;;;20.10;75.10;;;;;;5036333;28;20041;-55